Time;durP1;ratioP1;P1;durP2;ratioP2;P2;SDS_P1;SDS_P2;PMS_P1;PMS_P2;Temp;Humidity;BMP_temperature;BMP_pressure;BME280_temperature;BME280_humidity;BME280_pressure;Samples;Min_cycle;Max_cycle;Signal;HPM_P1;HPM_P2
2023/04/19 00:00:07;;;;;;;4.07;0.95;;;;;;;;;;4953381;28;20057;-57
2023/04/19 00:02:34;;;;;;;6.10;0.90;;;;;;;;;;4973648;28;20047;-58
2023/04/19 00:05:01;;;;;;;2.90;0.80;;;;;;;;;;4974878;28;20042;-59
2023/04/19 00:07:28;;;;;;;4.65;1.20;;;;;;;;;;4956832;28;20057;-57
2023/04/19 00:09:54;;;;;;;4.57;0.90;;;;;;;;;;4958767;28;20474;-59
2023/04/19 00:12:21;;;;;;;3.38;1.00;;;;;;;;;;4973362;28;20042;-55
2023/04/19 00:14:48;;;;;;;7.93;0.98;;;;;;;;;;4974994;28;20585;-57
2023/04/19 00:17:15;;;;;;;3.72;0.95;;;;;;;;;;4972336;28;20038;-57
2023/04/19 00:19:41;;;;;;;2.90;0.90;;;;;;;;;;4972780;28;20641;-56
2023/04/19 00:22:08;;;;;;;2.88;0.80;;;;;;;;;;4972313;28;20585;-62
2023/04/19 00:24:35;;;;;;;2.33;0.77;;;;;;;;;;4972773;28;20073;-63
2023/04/19 00:27:03;;;;;;;3.72;0.98;;;;;;;;;;4972580;28;20567;-62
2023/04/19 00:29:30;;;;;;;5.15;1.20;;;;;;;;;;4972306;28;20049;-59
2023/04/19 00:31:57;;;;;;;4.05;0.90;;;;;;;;;;4974549;28;20047;-59
2023/04/19 00:34:24;;;;;;;3.90;1.00;;;;;;;;;;4972568;28;20046;-61
2023/04/19 00:36:50;;;;;;;3.92;1.27;;;;;;;;;;4994992;28;20042;-59
2023/04/19 00:39:17;;;;;;;8.13;1.15;;;;;;;;;;4974133;28;20158;-60
2023/04/19 00:41:44;;;;;;;3.30;0.93;;;;;;;;;;4996429;28;20096;-58
2023/04/19 00:44:10;;;;;;;3.40;1.00;;;;;;;;;;4995921;28;20043;-57
2023/04/19 00:46:37;;;;;;;6.32;0.90;;;;;;;;;;4963160;28;20558;-59
2023/04/19 00:49:04;;;;;;;10.52;1.33;;;;;;;;;;4957906;28;20063;-57
2023/04/19 00:51:31;;;;;;;5.32;1.00;;;;;;;;;;4958519;28;20050;-61
2023/04/19 00:53:58;;;;;;;3.65;0.88;;;;;;;;;;4958980;28;20407;-59
2023/04/19 00:56:26;;;;;;;3.22;0.90;;;;;;;;;;4957902;28;20054;-59
2023/04/19 00:58:56;;;;;;;6.00;1.42;;;;;;;;;;4958326;28;20053;-63
2023/04/19 01:01:43;;;;;;;4.43;1.27;;;;;;;;;;4935928;28;21018;-60
2023/04/19 01:04:10;;;;;;;4.63;1.08;;;;;;;;;;4975068;28;20047;-60
2023/04/19 01:06:38;;;;;;;3.53;1.00;;;;;;;;;;4973375;28;20129;-61
2023/04/19 01:09:05;;;;;;;28.60;2.50;;;;;;;;;;4974202;28;20050;-62
2023/04/19 01:11:31;;;;;;;3.72;0.90;;;;;;;;;;4976204;28;20038;-68
2023/04/19 01:13:58;;;;;;;6.13;1.17;;;;;;;;;;4974159;28;20065;-59
2023/04/19 01:16:27;;;;;;;5.38;0.90;;;;;;;;;;4990422;28;20046;-60
2023/04/19 01:18:55;;;;;;;3.53;1.05;;;;;;;;;;4992263;28;20105;-60
2023/04/19 01:21:21;;;;;;;5.47;1.25;;;;;;;;;;4991870;28;20049;-58
2023/04/19 01:23:48;;;;;;;3.75;1.15;;;;;;;;;;4992024;28;20041;-61
2023/04/19 01:26:15;;;;;;;5.47;1.23;;;;;;;;;;4991962;28;20042;-61
2023/04/19 01:28:41;;;;;;;6.82;1.17;;;;;;;;;;4991015;28;20137;-60
2023/04/19 01:31:08;;;;;;;7.50;1.50;;;;;;;;;;4992593;28;20597;-62
2023/04/19 01:33:35;;;;;;;10.48;2.05;;;;;;;;;;4992801;28;20581;-58
2023/04/19 01:36:01;;;;;;;4.15;1.23;;;;;;;;;;4993092;28;20048;-56
2023/04/19 01:38:28;;;;;;;5.03;1.00;;;;;;;;;;4981794;28;20801;-57
2023/04/19 01:40:58;;;;;;;4.78;1.10;;;;;;;;;;4955489;28;20039;-60
2023/04/19 01:43:25;;;;;;;5.60;1.10;;;;;;;;;;4955720;28;20050;-62
2023/04/19 01:45:51;;;;;;;9.23;2.00;;;;;;;;;;4968687;28;20050;-56
2023/04/19 01:48:18;;;;;;;6.50;1.25;;;;;;;;;;4985072;28;20034;-57
2023/04/19 01:50:45;;;;;;;5.22;1.13;;;;;;;;;;4977630;28;20083;-58
2023/04/19 01:53:12;;;;;;;5.15;1.40;;;;;;;;;;4989235;28;20046;-63
2023/04/19 01:55:39;;;;;;;6.13;1.67;;;;;;;;;;4982350;28;20038;-60
2023/04/19 01:58:06;;;;;;;5.70;1.10;;;;;;;;;;4978283;28;20161;-56
2023/04/19 02:00:32;;;;;;;4.57;1.42;;;;;;;;;;4976689;28;20097;-54
2023/04/19 02:02:59;;;;;;;4.65;1.25;;;;;;;;;;4977007;28;20125;-59
2023/04/19 02:05:26;;;;;;;6.20;1.80;;;;;;;;;;4975716;28;20065;-58
2023/04/19 02:07:52;;;;;;;8.13;2.10;;;;;;;;;;4975585;28;20076;-58
2023/04/19 02:10:19;;;;;;;7.32;1.38;;;;;;;;;;4974707;28;20117;-60
2023/04/19 02:12:46;;;;;;;5.32;1.42;;;;;;;;;;4975829;28;20034;-56
2023/04/19 02:15:12;;;;;;;9.57;1.33;;;;;;;;;;4976546;28;20042;-57
2023/04/19 02:17:39;;;;;;;5.05;1.30;;;;;;;;;;4975036;28;20116;-55
2023/04/19 02:20:07;;;;;;;3.20;1.20;;;;;;;;;;4975541;28;20511;-57
2023/04/19 02:22:37;;;;;;;4.53;1.00;;;;;;;;;;4975322;28;20030;-55
2023/04/19 02:25:03;;;;;;;3.70;1.17;;;;;;;;;;4976063;28;20577;-57
2023/04/19 02:27:30;;;;;;;7.07;1.05;;;;;;;;;;4973689;28;20046;-56
2023/04/19 02:29:57;;;;;;;8.32;1.40;;;;;;;;;;4975871;28;20046;-60
2023/04/19 02:32:23;;;;;;;5.93;1.42;;;;;;;;;;4976274;28;20070;-57
2023/04/19 02:34:50;;;;;;;5.82;1.30;;;;;;;;;;4974361;28;20030;-56
2023/04/19 02:37:17;;;;;;;7.28;1.30;;;;;;;;;;4975233;28;20062;-58
2023/04/19 02:39:44;;;;;;;4.47;1.48;;;;;;;;;;4974482;28;20049;-60
2023/04/19 02:42:11;;;;;;;5.95;1.35;;;;;;;;;;4974476;28;20042;-57
2023/04/19 02:44:38;;;;;;;6.18;1.40;;;;;;;;;;4974799;28;20030;-57
2023/04/19 02:47:06;;;;;;;8.30;1.50;;;;;;;;;;4990625;28;20550;-58
2023/04/19 02:49:35;;;;;;;4.10;1.30;;;;;;;;;;4977067;28;20077;-58
2023/04/19 02:52:02;;;;;;;8.10;1.30;;;;;;;;;;4979501;28;20331;-61
2023/04/19 02:54:29;;;;;;;4.85;1.60;;;;;;;;;;4980199;28;20053;-59
2023/04/19 02:56:56;;;;;;;12.50;1.45;;;;;;;;;;4979363;28;20125;-62
2023/04/19 02:59:23;;;;;;;6.30;1.10;;;;;;;;;;4978626;28;20046;-59
2023/04/19 03:01:49;;;;;;;4.82;1.20;;;;;;;;;;4980722;28;20173;-59
2023/04/19 03:04:16;;;;;;;12.43;1.58;;;;;;;;;;4978706;28;20038;-62
2023/04/19 03:06:44;;;;;;;7.65;1.38;;;;;;;;;;4978668;28;20585;-58
2023/04/19 03:09:10;;;;;;;5.68;1.30;;;;;;;;;;4991080;28;20049;-60
2023/04/19 03:11:57;;;;;;;6.85;1.45;;;;;;;;;;4988869;28;20360;-63
2023/04/19 03:14:23;;;;;;;8.20;1.35;;;;;;;;;;4989761;28;20095;-60
2023/04/19 03:16:50;;;;;;;5.03;1.00;;;;;;;;;;4978850;28;20616;-59
2023/04/19 03:19:17;;;;;;;5.13;1.30;;;;;;;;;;4988594;28;20042;-60
2023/04/19 03:21:43;;;;;;;6.57;1.50;;;;;;;;;;4988528;28;20164;-57
2023/04/19 03:24:10;;;;;;;10.32;1.45;;;;;;;;;;4988656;28;20440;-55
2023/04/19 03:26:37;;;;;;;5.07;1.42;;;;;;;;;;4975045;28;20516;-63
2023/04/19 03:29:03;;;;;;;5.35;1.40;;;;;;;;;;4975097;28;20069;-67
2023/04/19 03:31:30;;;;;;;8.57;1.83;;;;;;;;;;4988052;28;20233;-57
2023/04/19 03:33:57;;;;;;;12.65;1.42;;;;;;;;;;4987308;28;20074;-57
2023/04/19 03:36:23;;;;;;;6.95;1.50;;;;;;;;;;4975602;28;20467;-61
2023/04/19 03:38:51;;;;;;;9.65;1.60;;;;;;;;;;4988792;28;20140;-58
2023/04/19 03:41:19;;;;;;;4.57;1.25;;;;;;;;;;4987788;28;20203;-59
2023/04/19 03:43:45;;;;;;;27.33;2.75;;;;;;;;;;4979423;28;20117;-57
2023/04/19 03:46:12;;;;;;;7.20;1.13;;;;;;;;;;4977658;28;20082;-56
2023/04/19 03:48:39;;;;;;;4.57;1.27;;;;;;;;;;4976109;28;20062;-59
2023/04/19 03:51:05;;;;;;;4.38;1.27;;;;;;;;;;4978099;28;20522;-58
2023/04/19 03:53:32;;;;;;;4.15;1.10;;;;;;;;;;4976077;28;20034;-54
2023/04/19 03:55:59;;;;;;;3.33;0.95;;;;;;;;;;4977712;28;20041;-57
2023/04/19 03:58:26;;;;;;;10.88;1.52;;;;;;;;;;4974067;28;20042;-56
2023/04/19 04:00:53;;;;;;;4.70;1.17;;;;;;;;;;4977253;28;20145;-55
2023/04/19 04:03:19;;;;;;;3.80;1.20;;;;;;;;;;4976991;28;20050;-58
2023/04/19 04:05:46;;;;;;;3.33;1.17;;;;;;;;;;4977814;28;20109;-55
2023/04/19 04:08:13;;;;;;;10.35;2.10;;;;;;;;;;4978033;28;20149;-56
2023/04/19 04:10:39;;;;;;;3.10;0.90;;;;;;;;;;4975271;28;20589;-59
2023/04/19 04:13:06;;;;;;;6.65;1.23;;;;;;;;;;4976528;28;20077;-56
2023/04/19 04:15:32;;;;;;;3.40;1.00;;;;;;;;;;4976793;28;20050;-56
2023/04/19 04:17:59;;;;;;;3.78;1.00;;;;;;;;;;4976597;28;20047;-57
2023/04/19 04:20:27;;;;;;;5.32;1.08;;;;;;;;;;4977410;28;20403;-57
2023/04/19 04:22:54;;;;;;;4.68;1.13;;;;;;;;;;4969394;28;20122;-56
2023/04/19 04:25:21;;;;;;;6.68;1.27;;;;;;;;;;4978017;28;20167;-54
2023/04/19 04:27:51;;;;;;;4.50;1.08;;;;;;;;;;4985829;28;20877;-56
2023/04/19 04:30:17;;;;;;;5.95;1.30;;;;;;;;;;4979376;28;20073;-57
2023/04/19 04:32:45;;;;;;;6.85;1.63;;;;;;;;;;4980577;28;20038;-53
2023/04/19 04:35:12;;;;;;;5.50;1.25;;;;;;;;;;4982814;28;20066;-55
2023/04/19 04:37:39;;;;;;;7.45;1.30;;;;;;;;;;4980058;28;21026;-52
2023/04/19 04:40:06;;;;;;;5.43;1.05;;;;;;;;;;4980289;28;20046;-54
2023/04/19 04:42:34;;;;;;;10.18;1.27;;;;;;;;;;4977475;28;20042;-55
2023/04/19 04:45:01;;;;;;;4.63;1.50;;;;;;;;;;4977117;28;20086;-56
2023/04/19 04:47:31;;;;;;;3.47;1.17;;;;;;;;;;4978190;28;20219;-58
2023/04/19 04:49:58;;;;;;;5.90;1.10;;;;;;;;;;4977824;28;20039;-60
2023/04/19 04:52:24;;;;;;;9.73;1.30;;;;;;;;;;4974607;28;20066;-58
2023/04/19 04:54:51;;;;;;;4.25;1.10;;;;;;;;;;4977588;28;20040;-57
2023/04/19 04:57:17;;;;;;;3.05;1.17;;;;;;;;;;4977405;28;20046;-58
2023/04/19 04:59:46;;;;;;;2.70;1.00;;;;;;;;;;4977123;28;20046;-54
2023/04/19 05:02:16;;;;;;;3.95;1.25;;;;;;;;;;4977979;28;20042;-57
2023/04/19 05:04:42;;;;;;;3.70;1.10;;;;;;;;;;4976503;28;20159;-58
2023/04/19 05:07:09;;;;;;;5.80;1.20;;;;;;;;;;4975576;28;20070;-57
2023/04/19 05:09:36;;;;;;;3.88;1.08;;;;;;;;;;4973562;28;20046;-56
2023/04/19 05:12:03;;;;;;;5.93;1.20;;;;;;;;;;4976630;28;20053;-59
2023/04/19 05:14:29;;;;;;;3.40;1.02;;;;;;;;;;4976065;28;20435;-56
2023/04/19 05:16:56;;;;;;;4.03;1.20;;;;;;;;;;4967739;28;20547;-58
2023/04/19 05:19:23;;;;;;;3.95;1.15;;;;;;;;;;4974325;28;20049;-60
2023/04/19 05:21:49;;;;;;;3.10;1.00;;;;;;;;;;4968523;28;20045;-60
2023/04/19 05:24:16;;;;;;;3.67;1.38;;;;;;;;;;4968456;28;20066;-56
2023/04/19 05:26:43;;;;;;;4.85;1.10;;;;;;;;;;4975021;28;20407;-58
2023/04/19 05:29:10;;;;;;;4.05;1.02;;;;;;;;;;4980446;28;20092;-57
2023/04/19 05:31:37;;;;;;;3.42;1.20;;;;;;;;;;4976612;28;20043;-60
2023/04/19 05:34:03;;;;;;;3.63;1.50;;;;;;;;;;4976106;28;21217;-56
2023/04/19 05:36:31;;;;;;;3.80;1.27;;;;;;;;;;4987657;28;20041;-57
2023/04/19 05:38:57;;;;;;;5.55;1.10;;;;;;;;;;4988265;28;20855;-59
2023/04/19 05:41:24;;;;;;;2.63;0.95;;;;;;;;;;4988597;28;20037;-56
2023/04/19 05:43:51;;;;;;;3.55;1.17;;;;;;;;;;4989886;28;20042;-57
2023/04/19 05:46:17;;;;;;;2.60;1.10;;;;;;;;;;4988703;28;20046;-57
2023/04/19 05:48:45;;;;;;;3.80;1.40;;;;;;;;;;4987357;28;20038;-58
2023/04/19 05:51:11;;;;;;;7.75;1.23;;;;;;;;;;4987997;28;20030;-55
2023/04/19 05:53:38;;;;;;;3.08;1.02;;;;;;;;;;4988036;28;20053;-58
2023/04/19 05:56:05;;;;;;;3.75;1.25;;;;;;;;;;4980766;28;21214;-57
2023/04/19 05:58:31;;;;;;;3.83;1.35;;;;;;;;;;4986937;28;20113;-57
2023/04/19 06:00:58;;;;;;;3.67;1.10;;;;;;;;;;4987199;28;20172;-58
2023/04/19 06:03:25;;;;;;;5.28;1.20;;;;;;;;;;4987519;28;20760;-56
2023/04/19 06:05:52;;;;;;;5.10;1.55;;;;;;;;;;4972731;28;20430;-56
2023/04/19 06:08:18;;;;;;;8.43;1.25;;;;;;;;;;4973256;28;20609;-61
2023/04/19 06:10:48;;;;;;;3.50;1.10;;;;;;;;;;4976677;28;20042;-65
2023/04/19 06:13:15;;;;;;;5.57;1.40;;;;;;;;;;4973176;28;20078;-56
2023/04/19 06:15:41;;;;;;;6.57;1.23;;;;;;;;;;4975352;28;20046;-55
2023/04/19 06:18:09;;;;;;;3.97;1.20;;;;;;;;;;4975039;28;20154;-57
2023/04/19 06:20:39;;;;;;;3.08;1.20;;;;;;;;;;4975185;28;20058;-57
2023/04/19 06:23:07;;;;;;;5.05;1.23;;;;;;;;;;4977242;28;20041;-58
2023/04/19 06:25:33;;;;;;;4.85;1.35;;;;;;;;;;4979537;28;20130;-58
2023/04/19 06:28:01;;;;;;;4.43;1.40;;;;;;;;;;4979700;28;20609;-57
2023/04/19 06:30:27;;;;;;;3.65;1.30;;;;;;;;;;4977822;28;20085;-57
2023/04/19 06:32:54;;;;;;;4.30;1.42;;;;;;;;;;4979340;28;20078;-55
2023/04/19 06:35:20;;;;;;;6.15;1.33;;;;;;;;;;4980097;28;20043;-55
2023/04/19 06:37:47;;;;;;;8.48;1.60;;;;;;;;;;4978064;28;20118;-57
2023/04/19 06:40:14;;;;;;;6.07;1.35;;;;;;;;;;4980122;28;20034;-58
2023/04/19 06:42:40;;;;;;;5.55;1.20;;;;;;;;;;4978264;28;20038;-56
2023/04/19 06:45:07;;;;;;;10.38;1.42;;;;;;;;;;4978625;28;20094;-55
2023/04/19 06:47:34;;;;;;;7.13;1.52;;;;;;;;;;4978153;28;20038;-56
2023/04/19 06:50:01;;;;;;;4.63;1.55;;;;;;;;;;4979651;28;20085;-55
2023/04/19 06:52:28;;;;;;;8.35;1.35;;;;;;;;;;4979159;28;20042;-55
2023/04/19 06:54:55;;;;;;;4.65;1.58;;;;;;;;;;4971939;28;20034;-60
2023/04/19 06:57:22;;;;;;;3.53;1.30;;;;;;;;;;4979376;28;20125;-59
2023/04/19 06:59:49;;;;;;;7.88;1.35;;;;;;;;;;4980401;28;20137;-57
2023/04/19 07:02:15;;;;;;;6.53;1.30;;;;;;;;;;4979471;28;20030;-56
2023/04/19 07:04:42;;;;;;;5.63;1.40;;;;;;;;;;4979255;28;20057;-59
2023/04/19 07:07:09;;;;;;;3.25;1.10;;;;;;;;;;4977696;28;20045;-59
2023/04/19 07:09:35;;;;;;;5.60;1.40;;;;;;;;;;4978379;28;20042;-56
2023/04/19 07:12:02;;;;;;;8.80;1.80;;;;;;;;;;4993371;28;20151;-57
2023/04/19 07:14:29;;;;;;;6.57;2.20;;;;;;;;;;4977743;28;20141;-60
2023/04/19 07:16:55;;;;;;;4.75;2.00;;;;;;;;;;4976137;28;20069;-56
2023/04/19 07:19:22;;;;;;;5.20;2.10;;;;;;;;;;4977658;28;20151;-57
2023/04/19 07:21:49;;;;;;;5.50;1.98;;;;;;;;;;4977285;28;20081;-58
2023/04/19 07:24:15;;;;;;;6.43;1.70;;;;;;;;;;4978008;28;20109;-53
2023/04/19 07:26:42;;;;;;;6.18;1.80;;;;;;;;;;4976967;28;20129;-61
2023/04/19 07:29:09;;;;;;;6.82;1.60;;;;;;;;;;4981445;28;20038;-59
2023/04/19 07:31:35;;;;;;;7.63;1.65;;;;;;;;;;4980327;28;20042;-55
2023/04/19 07:34:02;;;;;;;3.08;1.20;;;;;;;;;;4983512;28;20108;-55
2023/04/19 07:36:30;;;;;;;4.95;1.55;;;;;;;;;;4982448;28;20224;-55
2023/04/19 07:38:57;;;;;;;5.75;1.50;;;;;;;;;;4978363;28;20057;-57
2023/04/19 07:41:24;;;;;;;6.60;1.42;;;;;;;;;;4976458;28;20037;-57
2023/04/19 07:43:50;;;;;;;5.35;1.30;;;;;;;;;;4976757;28;20041;-58
2023/04/19 07:46:17;;;;;;;6.07;1.40;;;;;;;;;;4976369;28;20137;-58
2023/04/19 07:48:45;;;;;;;6.90;1.52;;;;;;;;;;4976888;28;20043;-57
2023/04/19 07:51:12;;;;;;;7.40;1.70;;;;;;;;;;4978272;28;20034;-58
2023/04/19 07:53:40;;;;;;;3.47;1.40;;;;;;;;;;4976806;28;20518;-56
2023/04/19 07:56:07;;;;;;;7.35;1.60;;;;;;;;;;4993521;28;20084;-57
2023/04/19 07:58:35;;;;;;;5.93;2.00;;;;;;;;;;4976640;28;20077;-57
2023/04/19 08:01:02;;;;;;;4.13;1.73;;;;;;;;;;4977822;28;20038;-57
2023/04/19 08:03:30;;;;;;;7.05;2.17;;;;;;;;;;4976994;28;20038;-59
2023/04/19 08:05:57;;;;;;;4.85;1.77;;;;;;;;;;4978401;28;20125;-57
2023/04/19 08:08:24;;;;;;;4.10;1.48;;;;;;;;;;4976765;28;20042;-59
2023/04/19 08:10:55;;;;;;;4.78;1.60;;;;;;;;;;4977464;28;20046;-56
2023/04/19 08:13:22;;;;;;;4.93;1.42;;;;;;;;;;4976144;28;20805;-56
2023/04/19 08:15:49;;;;;;;4.63;1.42;;;;;;;;;;4976372;28;20046;-58
2023/04/19 08:18:16;;;;;;;9.90;1.90;;;;;;;;;;4976728;28;20082;-58
2023/04/19 08:20:42;;;;;;;3.63;1.55;;;;;;;;;;4975384;28;20051;-58
2023/04/19 08:23:10;;;;;;;5.53;1.45;;;;;;;;;;4974714;28;20026;-57
2023/04/19 08:25:36;;;;;;;4.80;1.25;;;;;;;;;;4991861;28;20427;-56
2023/04/19 08:28:03;;;;;;;9.07;1.80;;;;;;;;;;4974038;28;20089;-58
2023/04/19 08:30:30;;;;;;;5.80;1.52;;;;;;;;;;4968444;28;20601;-59
2023/04/19 08:32:57;;;;;;;9.70;1.70;;;;;;;;;;4978147;28;20038;-56
2023/04/19 08:35:24;;;;;;;5.20;1.58;;;;;;;;;;4975840;28;20038;-58
2023/04/19 08:37:50;;;;;;;7.15;1.48;;;;;;;;;;4976757;28;20133;-58
2023/04/19 08:40:17;;;;;;;8.13;1.52;;;;;;;;;;4976012;28;20046;-56
2023/04/19 08:42:44;;;;;;;4.95;1.58;;;;;;;;;;4975941;28;20046;-57
2023/04/19 08:45:12;;;;;;;4.80;1.50;;;;;;;;;;4975822;28;20649;-60
2023/04/19 08:47:39;;;;;;;4.47;1.30;;;;;;;;;;4974804;28;20061;-58
2023/04/19 08:50:07;;;;;;;3.40;1.27;;;;;;;;;;4975538;28;20072;-61
2023/04/19 08:52:35;;;;;;;6.47;1.30;;;;;;;;;;4974906;28;20078;-57
2023/04/19 08:55:03;;;;;;;6.15;1.88;;;;;;;;;;4968309;28;20080;-60
2023/04/19 08:57:31;;;;;;;5.25;1.73;;;;;;;;;;4974674;28;20054;-58
2023/04/19 08:59:58;;;;;;;3.85;1.65;;;;;;;;;;4975298;28;20857;-56
2023/04/19 09:02:25;;;;;;;7.60;1.45;;;;;;;;;;4975875;28;20514;-58
2023/04/19 09:04:52;;;;;;;8.05;1.85;;;;;;;;;;4976046;28;20042;-59
2023/04/19 09:07:25;;;;;;;8.90;1.80;;;;;;;;;;4976080;28;20039;-57
2023/04/19 09:10:05;;;;;;;6.97;1.73;;;;;;;;;;4975201;28;20406;-59
2023/04/19 09:12:32;;;;;;;9.82;1.67;;;;;;;;;;4975687;28;20065;-57
2023/04/19 09:14:58;;;;;;;5.07;1.85;;;;;;;;;;4974929;28;20070;-59
2023/04/19 09:17:25;;;;;;;5.90;1.70;;;;;;;;;;4974149;28;20034;-57
2023/04/19 09:19:52;;;;;;;6.07;1.80;;;;;;;;;;4975627;28;20542;-56
2023/04/19 09:22:18;;;;;;;6.20;1.88;;;;;;;;;;4975730;28;20061;-55
2023/04/19 09:24:45;;;;;;;9.35;1.80;;;;;;;;;;4974493;28;20446;-57
2023/04/19 09:27:12;;;;;;;6.40;1.80;;;;;;;;;;4966616;28;20038;-53
2023/04/19 09:29:39;;;;;;;8.27;1.60;;;;;;;;;;4974294;28;20043;-57
2023/04/19 09:32:07;;;;;;;7.15;1.70;;;;;;;;;;4976024;28;20797;-57
2023/04/19 09:34:33;;;;;;;4.00;1.65;;;;;;;;;;4975290;28;20050;-55
2023/04/19 09:37:13;;;;;;;4.35;1.75;;;;;;;;;;4974723;28;20065;-58
2023/04/19 09:39:40;;;;;;;5.53;1.77;;;;;;;;;;4969122;28;20480;-58
2023/04/19 09:42:06;;;;;;;7.88;1.50;;;;;;;;;;4975692;28;20137;-58
2023/04/19 09:44:34;;;;;;;7.97;1.95;;;;;;;;;;4975772;28;20070;-59
2023/04/19 09:47:01;;;;;;;7.22;1.85;;;;;;;;;;4975206;28;20149;-59
2023/04/19 09:49:27;;;;;;;7.80;1.90;;;;;;;;;;4974922;28;20376;-56
2023/04/19 09:51:55;;;;;;;5.38;1.48;;;;;;;;;;4975191;28;20132;-57
2023/04/19 09:54:23;;;;;;;7.20;1.90;;;;;;;;;;4975232;28;20035;-59
2023/04/19 09:56:51;;;;;;;4.63;2.03;;;;;;;;;;4968798;28;20038;-56
2023/04/19 09:59:18;;;;;;;8.68;2.10;;;;;;;;;;4979609;28;20065;-57
2023/04/19 10:01:46;;;;;;;5.32;1.50;;;;;;;;;;4977795;28;20518;-56
2023/04/19 10:04:20;;;;;;;5.20;1.98;;;;;;;;;;4979979;28;20042;-59
2023/04/19 10:06:50;;;;;;;6.55;2.00;;;;;;;;;;4989046;28;20070;-58
2023/04/19 10:09:17;;;;;;;5.82;1.75;;;;;;;;;;4979273;28;20046;-60
2023/04/19 10:11:48;;;;;;;6.30;1.70;;;;;;;;;;4978475;28;20115;-57
2023/04/19 10:14:15;;;;;;;8.55;2.30;;;;;;;;;;4991947;28;20047;-58
2023/04/19 10:16:42;;;;;;;7.90;2.00;;;;;;;;;;4980162;28;20064;-59
2023/04/19 10:19:10;;;;;;;4.40;1.55;;;;;;;;;;4979714;28;20050;-58
2023/04/19 10:21:37;;;;;;;5.53;1.80;;;;;;;;;;4978520;28;20053;-58
2023/04/19 10:24:04;;;;;;;5.93;1.55;;;;;;;;;;4979965;28;20050;-57
2023/04/19 10:26:51;;;;;;;5.18;1.75;;;;;;;;;;4978972;28;20837;-57
2023/04/19 10:29:37;;;;;;;6.88;1.90;;;;;;;;;;4979280;28;20042;-55
2023/04/19 10:32:05;;;;;;;4.57;2.00;;;;;;;;;;4978228;28;20384;-58
2023/04/19 10:34:39;;;;;;;6.68;2.28;;;;;;;;;;4993514;28;20045;-59
2023/04/19 10:37:10;;;;;;;6.07;2.40;;;;;;;;;;4978970;28;20046;-57
2023/04/19 10:39:40;;;;;;;6.47;2.50;;;;;;;;;;4978800;28;20038;-57
2023/04/19 10:42:07;;;;;;;6.10;2.15;;;;;;;;;;4992892;28;20054;-59
2023/04/19 10:44:33;;;;;;;5.85;2.13;;;;;;;;;;4978585;28;20042;-58
2023/04/19 10:47:00;;;;;;;5.25;2.00;;;;;;;;;;4969416;28;20123;-59
2023/04/19 10:49:30;;;;;;;10.38;2.47;;;;;;;;;;4978905;28;20050;-57
2023/04/19 10:51:59;;;;;;;7.28;2.40;;;;;;;;;;4978573;28;20043;-57
2023/04/19 10:54:30;;;;;;;5.45;2.20;;;;;;;;;;4978032;28;20044;-58
2023/04/19 10:57:01;;;;;;;10.15;2.42;;;;;;;;;;4979041;28;20047;-58
2023/04/19 10:59:32;;;;;;;7.80;2.20;;;;;;;;;;4977598;28;20057;-58
2023/04/19 11:01:59;;;;;;;4.30;2.05;;;;;;;;;;4977410;28;20042;-57
2023/04/19 11:04:32;;;;;;;8.48;2.47;;;;;;;;;;4978296;28;20042;-57
2023/04/19 11:07:00;;;;;;;7.53;2.20;;;;;;;;;;4977975;28;20485;-59
2023/04/19 11:09:29;;;;;;;6.68;1.77;;;;;;;;;;4977756;28;20034;-60
2023/04/19 11:12:03;;;;;;;7.45;2.00;;;;;;;;;;4977936;28;20381;-58
2023/04/19 11:14:34;;;;;;;4.95;1.85;;;;;;;;;;4977812;28;20044;-58
2023/04/19 11:17:03;;;;;;;5.38;2.17;;;;;;;;;;4978811;28;20171;-58
2023/04/19 11:19:30;;;;;;;7.60;2.45;;;;;;;;;;4977193;28;20180;-57
2023/04/19 11:21:58;;;;;;;8.40;2.70;;;;;;;;;;4977680;28;20129;-59
2023/04/19 11:24:25;;;;;;;6.93;2.58;;;;;;;;;;4977762;28;20118;-59
2023/04/19 11:26:52;;;;;;;7.50;2.10;;;;;;;;;;4977779;28;20061;-56
2023/04/19 11:29:20;;;;;;;5.60;2.20;;;;;;;;;;4979082;28;20035;-54
2023/04/19 11:31:47;;;;;;;6.35;2.42;;;;;;;;;;4976654;28;20752;-57
2023/04/19 11:34:14;;;;;;;9.95;2.67;;;;;;;;;;4978963;28;20137;-58
2023/04/19 11:36:50;;;;;;;8.13;2.38;;;;;;;;;;4977649;28;20049;-56
2023/04/19 11:39:17;;;;;;;4.97;2.60;;;;;;;;;;4978884;28;20039;-58
2023/04/19 11:41:46;;;;;;;6.88;2.60;;;;;;;;;;4978906;28;20042;-60
2023/04/19 11:44:13;;;;;;;6.40;2.63;;;;;;;;;;4978764;28;20039;-58
2023/04/19 11:46:40;;;;;;;5.72;2.80;;;;;;;;;;4978572;28;20130;-58
2023/04/19 11:49:06;;;;;;;9.52;2.90;;;;;;;;;;4979145;28;20070;-58
2023/04/19 11:51:33;;;;;;;8.10;2.83;;;;;;;;;;4976858;28;20733;-57
2023/04/19 11:54:00;;;;;;;6.90;3.22;;;;;;;;;;4970688;28;20039;-58
2023/04/19 11:56:27;;;;;;;5.38;2.70;;;;;;;;;;4977852;28;20066;-55
2023/04/19 11:58:57;;;;;;;10.13;3.67;;;;;;;;;;4978577;28;20092;-57
2023/04/19 12:01:24;;;;;;;8.25;3.08;;;;;;;;;;4977004;28;20512;-57
2023/04/19 12:03:57;;;;;;;7.10;3.35;;;;;;;;;;4978297;28;20056;-56
2023/04/19 12:06:28;;;;;;;8.05;4.63;;;;;;;;;;4978233;28;20053;-58
2023/04/19 12:08:56;;;;;;;12.40;4.80;;;;;;;;;;4978519;28;20046;-57
2023/04/19 12:11:25;;;;;;;15.32;6.38;;;;;;;;;;4978324;28;20073;-59
2023/04/19 12:14:10;;;;;;;16.55;7.88;;;;;;;;;;4979260;28;20038;-58
2023/04/19 12:16:37;;;;;;;14.73;6.70;;;;;;;;;;4977587;28;20034;-58
2023/04/19 12:19:14;;;;;;;23.90;9.13;;;;;;;;;;4977940;28;20043;-58
2023/04/19 12:21:41;;;;;;;31.88;9.70;;;;;;;;;;4976376;28;20054;-59
2023/04/19 12:24:08;;;;;;;19.75;9.30;;;;;;;;;;4971701;28;20088;-57
2023/04/19 12:26:34;;;;;;;49.17;10.20;;;;;;;;;;4976583;28;20035;-59
2023/04/19 12:29:02;;;;;;;36.33;10.95;;;;;;;;;;4980768;28;20034;-59
2023/04/19 12:31:33;;;;;;;68.70;13.02;;;;;;;;;;4981003;28;20070;-58
2023/04/19 12:34:00;;;;;;;85.75;13.32;;;;;;;;;;4980379;28;20042;-59
2023/04/19 12:36:27;;;;;;;43.15;12.02;;;;;;;;;;4979149;28;20042;-62
2023/04/19 12:38:54;;;;;;;66.15;13.10;;;;;;;;;;4991230;28;20043;-59
2023/04/19 12:41:30;;;;;;;121.47;15.10;;;;;;;;;;5027836;27;20440;-55
2023/04/19 12:43:56;;;;;;;93.05;12.38;;;;;;;;;;5025446;28;20145;-54
2023/04/19 12:46:23;;;;;;;118.00;14.18;;;;;;;;;;5024478;28;20053;-54
2023/04/19 12:48:50;;;;;;;77.60;12.05;;;;;;;;;;5026676;28;20116;-56
2023/04/19 12:51:16;;;;;;;119.55;13.63;;;;;;;;;;5025180;28;20407;-56
2023/04/19 12:53:48;;;;;;;303.08;23.38;;;;;;;;;;5024802;28;20041;-58
2023/04/19 12:56:16;;;;;;;102.97;13.85;;;;;;;;;;5025753;28;20477;-58
2023/04/19 12:58:42;;;;;;;284.77;21.75;;;;;;;;;;5023012;28;20674;-57
2023/04/19 13:01:09;;;;;;;426.45;27.02;;;;;;;;;;5024230;28;20475;-55
2023/04/19 13:03:36;;;;;;;408.63;26.83;;;;;;;;;;5023247;28;20137;-57
2023/04/19 13:06:03;;;;;;;281.70;21.98;;;;;;;;;;5024225;28;20061;-56
2023/04/19 13:08:30;;;;;;;305.55;23.95;;;;;;;;;;5023287;28;20033;-56
2023/04/19 13:11:00;;;;;;;281.05;21.20;;;;;;;;;;5024920;28;20105;-58
2023/04/19 13:13:26;;;;;;;254.85;21.08;;;;;;;;;;5025938;28;20044;-57
2023/04/19 13:15:53;;;;;;;359.00;24.98;;;;;;;;;;5026457;28;20076;-57
2023/04/19 13:18:21;;;;;;;155.02;14.80;;;;;;;;;;5026780;28;20491;-56
2023/04/19 13:20:48;;;;;;;167.88;13.95;;;;;;;;;;5023490;28;20053;-55
2023/04/19 13:23:15;;;;;;;25.15;9.73;;;;;;;;;;5026009;28;20038;-55
2023/04/19 13:25:41;;;;;;;41.45;9.77;;;;;;;;;;5038175;28;20033;-59
2023/04/19 13:28:08;;;;;;;20.15;9.43;;;;;;;;;;5024746;28;20067;-57
2023/04/19 13:30:35;;;;;;;71.32;10.65;;;;;;;;;;5024092;28;20128;-57
2023/04/19 13:33:01;;;;;;;21.13;8.55;;;;;;;;;;5025536;28;20095;-57
2023/04/19 13:35:28;;;;;;;21.40;9.25;;;;;;;;;;5023266;28;20060;-56
2023/04/19 13:37:55;;;;;;;16.75;8.88;;;;;;;;;;5023691;28;20042;-57
2023/04/19 13:40:22;;;;;;;20.92;8.95;;;;;;;;;;5038324;28;20100;-63
2023/04/19 13:42:48;;;;;;;17.67;9.00;;;;;;;;;;5023669;28;20048;-58
2023/04/19 13:45:15;;;;;;;27.45;8.32;;;;;;;;;;5025308;28;20156;-57
2023/04/19 13:47:42;;;;;;;42.53;9.50;;;;;;;;;;5024345;28;20037;-58
2023/04/19 13:50:09;;;;;;;51.70;9.93;;;;;;;;;;5023859;28;20127;-60
2023/04/19 13:52:36;;;;;;;13.27;7.15;;;;;;;;;;5026501;28;20499;-55
2023/04/19 13:55:02;;;;;;;17.67;6.63;;;;;;;;;;5013850;28;20026;-57
2023/04/19 13:57:29;;;;;;;15.65;7.35;;;;;;;;;;5004834;28;20038;-58
2023/04/19 13:59:55;;;;;;;16.95;7.30;;;;;;;;;;5013196;28;20539;-58
2023/04/19 14:02:22;;;;;;;18.40;8.38;;;;;;;;;;5015404;28;20052;-58
2023/04/19 14:04:49;;;;;;;19.25;7.75;;;;;;;;;;5010362;28;20053;-60
2023/04/19 14:07:16;;;;;;;16.52;8.02;;;;;;;;;;5011482;28;20041;-62
2023/04/19 14:09:43;;;;;;;16.05;7.85;;;;;;;;;;5010562;28;20982;-59
2023/04/19 14:12:10;;;;;;;14.95;7.97;;;;;;;;;;5012226;28;20045;-57
2023/04/19 14:14:36;;;;;;;13.68;7.18;;;;;;;;;;5009857;28;20025;-58
2023/04/19 14:17:03;;;;;;;14.65;7.30;;;;;;;;;;5010300;28;20076;-56
2023/04/19 14:19:30;;;;;;;14.40;7.20;;;;;;;;;;5024782;28;20058;-56
2023/04/19 14:21:56;;;;;;;16.45;7.68;;;;;;;;;;5008607;28;20145;-58
2023/04/19 14:24:23;;;;;;;16.90;8.40;;;;;;;;;;5009643;28;20037;-59
2023/04/19 14:26:49;;;;;;;21.08;7.88;;;;;;;;;;5012034;28;20549;-55
2023/04/19 14:29:16;;;;;;;10.55;6.70;;;;;;;;;;5011079;28;20056;-58
2023/04/19 14:31:43;;;;;;;18.30;7.65;;;;;;;;;;5008235;28;20096;-58
2023/04/19 14:34:09;;;;;;;13.45;7.07;;;;;;;;;;5012668;28;20499;-57
2023/04/19 14:36:36;;;;;;;10.10;5.50;;;;;;;;;;5009116;28;20045;-59
2023/04/19 14:39:05;;;;;;;14.13;5.53;;;;;;;;;;5009081;28;20092;-61